Tiempo atmosférico en la estación meteorológica de Monreal/Elo, Navarra (585 m.)



Fecha
DESCASC
Temp. máxima en grados centígrados (hora)
DESCASC
Temp. mínima en grados centígrados (hora)
DESCASC
Temp. media en grados centígrados
DESCASC
Racha de viento máxima en m/sg (hora)
DESCASC
Velocidad máxima media en intervalos de 10 minutos(hora)
DESCASC
Precipitaciones diarias en mm
DESCASC
Precipitaciones de 00:00 a 06:00 en mm
DESCASC
Precipitaciones de 06:00 a 12:00 en mm
DESCASC
Precipitaciones de 12:00 a 18:00 en mm
DESCASC
Precipitaciones de 18:00 a 24:00 en mm
DESCASC
31-05-2020 27.3 (15:00) 13.1 (06:50) 20.2 14.72 (17:30) 9.44 (17:40) 0 0 0 0 0
30-05-2020 28 (18:00) 10.6 (06:40) 19.3 6.94 (11:20) 4.17 (09:50) 0 0 0 0 0
29-05-2020 27.6 (15:00) 11.3 (07:20) 19.5 11.39 (20:20) 8.33 (20:20) 0 0 0 0 0
28-05-2020 27.5 (16:40) 13.1 (00:00) 20.3 7.22 (04:00) 6.11 (04:00) 0 0 0 0 0
27-05-2020 27.3 (15:30) 10.2 (00:00) 18.7 8.89 (18:30) 6.11 (18:30) 0 0 0 0 0
26-05-2020 24.9 (16:20) 10.9 (00:00) 17.9 11.39 (20:10) 8.33 (20:10) 0.6 0 0.6 0 0
25-05-2020 22.5 (17:20) 11.9 (00:00) 17.2 12.22 (20:00) 9.17 (20:10) 0 0 0 0 0
24-05-2020 22.2 (16:20) 8.9 (00:00) 15.6 11.39 (00:20) 8.06 (17:50) 0 0 0 0 0
23-05-2020 18.6 (15:10) 11.2 (00:00) 14.9 16.11 (18:00) 12.22 (18:00) 0 0 0 0 0
22-05-2020 29.8 (17:20) 11.7 (00:00) 20.7 11.94 (20:50) 9.17 (21:10) 0 0 0 0 0
21-05-2020 27.7 (18:30) 11.6 (00:00) 19.7 9.72 (04:20) 7.78 (04:20) 0 0 0 0 0
20-05-2020 26.3 (14:50) 8.9 (00:00) 17.6 10 (18:00) 7.22 (01:20) 0 0 0 0 0
19-05-2020 22.6 (15:10) 10 (00:00) 16.3 14.17 (14:30) 10.28 (04:00) 0 0 0 0 0
18-05-2020 20.3 (16:30) 8.5 (00:00) 14.4 14.72 (18:10) 11.11 (18:10) 0 0 0 0 0
17-05-2020 19.1 (16:10) 7.5 (00:00) 13.3 14.72 (11:50) 10.56 (10:50) 0 0 0 0 0
16-05-2020 15.9 (14:20) 8.1 (00:00) 12 13.61 (17:30) 10.28 (15:10) 0.2 0.2 0 0 0
15-05-2020 11.9 (13:20) 8.4 (00:00) 10.1 11.94 (02:30) 8.61 (02:30) 1.8 0 0 0 1.8
14-05-2020 14.6 (12:00) 8.1 (00:00) 11.4 12.22 (19:20) 9.17 (19:20) 0 0 0 0 0
13-05-2020 15.9 (15:30) 9.3 (00:00) 12.6 10 (04:20) 7.22 (04:20) 26.4 17.8 8.6 0 0
12-05-2020 18.8 (14:20) 8.7 (00:00) 13.7 8.06 (19:20) 6.11 (00:20) 3 0 0 0 3
11-05-2020 18.7 (15:40) 10.1 (00:00) 14.4 12.78 (19:00) 10 (19:00) 2.8 2.6 0.2 0 0
10-05-2020 15.4 (00:00) 10.7 (00:00) 13 10.28 (17:10) 7.5 (17:20) 28.4 0.2 15.6 1.6 11
09-05-2020 23.4 (17:30) 11.2 (06:50) 17.3 16.67 (19:40) 11.67 (19:40) 3 3 0 0 0
08-05-2020 25.4 (16:50) 12.7 (00:00) 19 14.72 (11:10) 10 (12:00) 0 0 0 0 0
07-05-2020 25 (17:10) 9.7 (00:00) 17.3 11.67 (16:30) 8.33 (16:30) 0 0 0 0 0
06-05-2020 24.9 (16:00) 8.5 (00:00) 16.7 9.44 (20:00) 5.83 (20:00) 0 0 0 0 0
05-05-2020 23.7 (16:40) 11.1 (00:00) 17.4 11.94 (00:10) 8.33 (00:20) 0 0 0 0 0

Gráficas

Temp. máximas Temp. mínimas Temp. medias Precipitaciones Rachas de viento máximas Velocidades máximas media en intervalos de 10 minutos

Datos horarios

Fecha y hora oficial Temperatura (ºC) Velocidad del viento (km/h) Dirección del viento Racha (km/h) Dirección de racha Precipitación (mm) Presión (hPa) Tendencia (hPa) Humedad (%)
2020-06-03 23:00:00 13.9 15 Norte 21 Noroeste 0 -- -- 89
2020-06-03 22:00:00 14 16 Noroeste 21 Noroeste 0 -- -- 90
2020-06-03 21:00:00 14.7 10 Noroeste 23 Noroeste 0 -- -- 92
2020-06-03 20:00:00 15.2 16 Noroeste 27 Noroeste 0 -- -- 92
2020-06-03 19:00:00 15.7 4 Noroeste 7 Oeste 0.2 -- -- 92
2020-06-03 18:00:00 16.3 6 Noroeste 12 Oeste 0.2 -- -- 90
2020-06-03 17:00:00 17.1 4 Sur 19 Este 0.6 -- -- 86
2020-06-03 16:00:00 15.1 11 Sudeste 19 Sudeste 0.8 -- -- 91
2020-06-03 15:00:00 15.5 5 Norte 40 Norte 1.6 -- -- 91
2020-06-03 14:00:00 17.6 14 Sur 19 Sudeste 0 -- -- 81
2020-06-03 13:00:00 17.7 14 Sudeste 21 Sudeste 0 -- -- 82
2020-06-03 12:00:00 19.1 15 Sudeste 22 Sudeste 0 -- -- 80
2020-06-03 11:00:00 18 9 Sudeste 14 Sudeste 0 -- -- 87
2020-06-03 10:00:00 17.3 3 Sur 8 Sur 0 -- -- 89
2020-06-03 09:00:00 16.6 6 Sudoeste 11 Sudeste 0 -- -- 93
2020-06-03 08:00:00 15.3 10 Sudeste 17 Este 1 -- -- 95
2020-06-03 07:00:00 15.2 5 Sudeste 10 Este 0 -- -- 96
2020-06-03 06:00:00 15.4 5 Sur 8 Sur 0.2 -- -- 96
2020-06-03 05:00:00 16 4 Sur 9 Sudeste 0 -- -- 96
2020-06-03 04:00:00 16.1 6 Sudeste 8 Sudeste 0 -- -- 95
2020-06-03 03:00:00 16.1 2 Sudoeste 8 Noroeste 0.2 -- -- 95
2020-06-03 02:00:00 16.4 4 Norte 7 Noroeste 0 -- -- 94
2020-06-03 01:00:00 16.1 6 Sudeste 9 Sudeste 0 -- -- 90
2020-06-03 00:00:00 16.9 3 Sudeste 8 Norte 0 -- -- 88
2020-06-02 23:00:00 17.9 2 Este 6 Este 0 -- -- 86
2020-06-02 22:00:00 19.3 2 Norte 10 Norte 0 -- -- 80
2020-06-02 21:00:00 21.4 7 Noroeste 20 Norte 0 -- -- 72
2020-06-02 20:00:00 22.8 12 Noroeste 19 Noroeste 0 -- -- 65
2020-06-02 19:00:00 22.7 12 Noroeste 24 Oeste 0 -- -- 62
2020-06-02 18:00:00 22.9 12 Noroeste 18 Sudoeste 0 -- -- 67
2020-06-02 17:00:00 23 9 Sur 24 Noroeste 0 -- -- 63
2020-06-02 16:00:00 27.3 9 Oeste 22 Noroeste 0 -- -- 47
2020-06-02 15:00:00 26.3 15 Norte 25 Norte 0 -- -- 49
2020-06-02 14:00:00 26.2 6 Sudoeste 16 Oeste 0 -- -- 54
2020-06-02 13:00:00 24.8 6 Noroeste 13 Oeste 0 -- -- 56
2020-06-02 12:00:00 23.4 6 Noroeste 12 Noroeste 0 -- -- 66
2020-06-02 11:00:00 23.5 3 Nordeste 15 Noroeste 0 -- -- 67
2020-06-02 10:00:00 19.5 9 Noroeste 14 Noroeste 0 -- -- 80
2020-06-02 09:00:00 17.9 4 Noroeste 8 Noroeste 0 -- -- 84
2020-06-02 08:00:00 14.6 4 Sudeste 8 Sudeste 0 -- -- 93
2020-06-02 07:00:00 13.1 7 Sudeste 10 Sudeste 0 -- -- 96
2020-06-02 06:00:00 13.5 6 Sudeste 10 Sudeste 0 -- -- 95
2020-06-02 05:00:00 14.1 6 Sudeste 9 Sudeste 0 -- -- 94
2020-06-02 04:00:00 15 3 Este 9 Sudeste 0 -- -- 93
2020-06-02 03:00:00 15 7 Sudeste 11 Este 0 -- -- 92
2020-06-02 02:00:00 15.4 5 Sudeste 9 Sudeste 0 -- -- 91
2020-06-02 01:00:00 17.5 2 Este 9 Norte 0 -- -- 87
2020-06-02 00:00:00 19.5 9 Norte 20 Noroeste 0 -- -- 80
2020-06-01 23:00:00 19.5 8 Noroeste 21 Noroeste 0 -- -- 81
2020-06-01 22:00:00 20.7 3 Norte 7 Este 0 -- -- 72
2020-06-01 21:00:00 22.8 2 Sudeste 10 Noroeste 0 -- -- 64
2020-06-01 20:00:00 25.2 10 Noroeste 17 Noroeste 0 -- -- 49
2020-06-01 19:00:00 26.2 9 Noroeste 14 Noroeste 0 -- -- 44
2020-06-01 18:00:00 26.4 9 Oeste 16 Oeste 0 -- -- 47
2020-06-01 17:00:00 25.5 5 Sudoeste 17 Noroeste 0 -- -- 51
2020-06-01 16:00:00 25.1 9 Sur 19 Sudeste 0 -- -- 54
2020-06-01 15:00:00 23 14 Sudeste 19 Sudeste 0 -- -- 63
2020-06-01 14:00:00 21.9 10 Sudeste 17 Sur 0 -- -- 65
2020-06-01 13:00:00 20.8 12 Noroeste 22 Noroeste 0 -- -- 69
2020-06-01 12:00:00 23.2 10 Sudeste 20 Sudeste 0 -- -- 65
2020-06-01 11:00:00 20.8 10 Sudeste 15 Sudeste 0 -- -- 69
2020-06-01 10:00:00 17.3 2 Sudoeste 5 Oeste 0 -- -- 77
2020-06-01 09:00:00 14.9 0 Calma 7 Nordeste 0 -- -- 86
2020-06-01 08:00:00 13.9 7 Sudeste 9 Sudeste 0 -- -- 88
2020-06-01 07:00:00 13.9 0 Calma 10 Sudeste 0 -- -- 84
2020-06-01 06:00:00 13.8 8 Sudeste 13 Sur 0 -- -- 84
2020-06-01 05:00:00 13.6 9 Sudeste 14 Sudeste 0 -- -- 83
2020-06-01 04:00:00 14 8 Este 11 Este 0 -- -- 82
2020-06-01 03:00:00 14.5 10 Sudeste 18 Sudeste 0 -- -- 81
2020-06-01 02:00:00 15 10 Sudeste 14 Sudeste 0 -- -- 81
2020-06-01 01:00:00 16.2 9 Sur 21 Sudeste 0 -- -- 76
2020-06-01 00:00:00 16.9 13 Sudeste 33 Sur 0 -- -- 73
2020-05-31 23:00:00 17.1 14 Sudeste 31 Sudeste 0 -- -- 66
2020-05-31 22:00:00 17.5 19 Sudeste 27 Sudeste 0 -- -- 65
2020-05-31 21:00:00 18.9 22 Sudeste 41 Sudeste 0 -- -- 66
2020-05-31 20:00:00 20.6 12 Noroeste 22 Noroeste 0 -- -- 66
2020-05-31 19:00:00 21.5 8 Sudoeste 21 Nordeste 0 -- -- 63
2020-05-31 18:00:00 22 22 Sudoeste 53 Sudoeste 0 -- -- 60
2020-05-31 17:00:00 22.9 18 Sudoeste 37 Sudoeste 0 -- -- 57
2020-05-31 16:00:00 25.5 8 Sudoeste 17 Sudeste 0 -- -- 55
2020-05-31 15:00:00 27.3 5 Sur 20 Este 0 -- -- 53
2020-05-31 14:00:00 25.3 9 Sur 27 Sudeste 0 -- -- 55
2020-05-31 13:00:00 24.6 17 Sur 41 Sur 0 -- -- 57
2020-05-31 12:00:00 23 10 Sudeste 22 Sudeste 0 -- -- 61
2020-05-31 11:00:00 21.1 6 Oeste 15 Oeste 0 -- -- 69
2020-05-31 10:00:00 19.1 10 Noroeste 14 Noroeste 0 -- -- 76
2020-05-31 09:00:00 16.8 8 Noroeste 10 Noroeste 0 -- -- 82
2020-05-31 08:00:00 13.9 6 Sudeste 9 Sudeste 0 -- -- 90
2020-05-31 07:00:00 13.2 4 Sudeste 9 Este 0 -- -- 92
2020-05-31 06:00:00 14.5 3 Sur 10 Sur 0 -- -- 87
2020-05-31 05:00:00 15.2 7 Sur 10 Sur 0 -- -- 85
2020-05-31 04:00:00 15.7 6 Sur 13 Sudeste 0 -- -- 83
2020-05-31 03:00:00 17.1 5 Sur 19 Sudeste 0 -- -- 77
2020-05-31 02:00:00 16.6 13 Sudeste 17 Sudeste 0 -- -- 80
2020-05-31 01:00:00 16.4 5 Sur 26 Sudeste 0 -- -- 78
2020-05-31 00:00:00 15.5 10 Sudeste 12 Sudeste 0 -- -- 82
2020-05-30 23:00:00 17 9 Sudeste 12 Sudeste 0 -- -- 77
2020-05-30 22:00:00 18.8 7 Sudeste 13 Norte 0 -- -- 68
2020-05-30 21:00:00 22.4 4 Este 10 Norte 0 -- -- 55
2020-05-30 20:00:00 26.1 7 Norte 13 Norte 0 -- -- 39
2020-05-30 19:00:00 27 6 Nordeste 21 Sudoeste 0 -- -- 38
2020-05-30 18:00:00 28 3 Este 15 Norte 0 -- -- 39
2020-05-30 17:00:00 27.3 4 Oeste 18 Sudoeste 0 -- -- 36
2020-05-30 16:00:00 26.9 8 Sudoeste 20 Sudoeste 0 -- -- 38
2020-05-30 15:00:00 26.6 5 Nordeste 19 Oeste 0 -- -- 43
2020-05-30 14:00:00 25.7 10 Sudoeste 20 Sur 0 -- -- 45
2020-05-30 13:00:00 24.2 9 Sur 23 Sur 0 -- -- 48
2020-05-30 12:00:00 22.5 13 Sudeste 25 Sudeste 0 -- -- 50
2020-05-30 11:00:00 21.4 10 Este 21 Sur 0 -- -- 52
2020-05-30 10:00:00 19.5 14 Sur 24 Sur 0 -- -- 55
2020-05-30 09:00:00 17.5 4 Este 11 Sudeste 0 -- -- 64
2020-05-30 08:00:00 12.7 7 Este 10 Sudeste 0 -- -- 85
2020-05-30 07:00:00 10.7 5 Sudeste 10 Sudeste 0 -- -- 89
2020-05-30 06:00:00 10.9 8 Sudeste 10 Sudeste 0 -- -- 90
2020-05-30 05:00:00 11.5 9 Sudeste 12 Sudeste 0 -- -- 91
2020-05-30 04:00:00 11.8 9 Sudeste 12 Sudeste 0 -- -- 91
2020-05-30 03:00:00 12.9 7 Sudeste 10 Sudeste 0 -- -- 86
2020-05-30 02:00:00 14.4 6 Este 14 Sudeste 0 -- -- 78
2020-05-30 01:00:00 14.2 10 Sudeste 17 Norte 0 -- -- 81
2020-05-30 00:00:00 17.2 12 Noroeste 26 Noroeste 0 -- -- 67
2020-05-29 23:00:00 17.2 14 Noroeste 23 Noroeste 0 -- -- 71
2020-05-29 22:00:00 19.1 16 Noroeste 27 Noroeste 0 -- -- 67
2020-05-29 21:00:00 22 18 Noroeste 41 Noroeste 0 -- -- 55
2020-05-29 20:00:00 23.8 28 Noroeste 39 Norte 0 -- -- 45
2020-05-29 19:00:00 25.2 26 Norte 37 Noroeste 0 -- -- 40
2020-05-29 18:00:00 25.9 21 Norte 39 Noroeste 0 -- -- 42
2020-05-29 17:00:00 27.2 22 Noroeste 38 Noroeste 0 -- -- 40
2020-05-29 16:00:00 27.4 21 Noroeste 32 Noroeste 0 -- -- 41
2020-05-29 15:00:00 27.6 19 Oeste 29 Oeste 0 -- -- 43
2020-05-29 14:00:00 26.7 12 Oeste 28 Oeste 0 -- -- 45
2020-05-29 13:00:00 25.2 12 Noroeste 21 Oeste 0 -- -- 52
2020-05-29 12:00:00 24.1 9 Noroeste 15 Noroeste 0 -- -- 53
2020-05-29 11:00:00 21.4 10 Noroeste 15 Noroeste 0 -- -- 66
2020-05-29 10:00:00 19.8 5 Noroeste 9 Noroeste 0 -- -- 73
2020-05-29 09:00:00 16.6 5 Noroeste 9 Este 0 -- -- 80
2020-05-29 08:00:00 13.6 0 Calma 10 Este 0 -- -- 88
2020-05-29 07:00:00 11.6 6 Sudeste 10 Sudeste 0 -- -- 91
2020-05-29 06:00:00 11.8 8 Sudeste 13 Este 0 -- -- 91
2020-05-29 05:00:00 12.5 8 Sudeste 11 Este 0 -- -- 90
2020-05-29 04:00:00 13.1 10 Sudeste 13 Sudeste 0 -- -- 88
2020-05-29 03:00:00 13.7 12 Sudeste 16 Este 0 -- -- 88
2020-05-29 02:00:00 13.5 11 Sudeste 13 Sudeste 0 -- -- 89
2020-05-29 01:00:00 14.6 8 Sudeste 15 Sudeste 0 -- -- 85
2020-05-29 00:00:00 15.1 10 Sudeste 13 Sudeste 0 -- -- 83
2020-05-28 23:00:00 16.1 10 Sudeste 13 Sudeste 0 -- -- 79
2020-05-28 22:00:00 18.5 10 Sudeste 14 Sudeste 0 -- -- 70
2020-05-28 21:00:00 21.4 4 Sudeste 6 Oeste 0 -- -- 57
2020-05-28 20:00:00 25.7 6 Oeste 14 Oeste 0 -- -- 41
2020-05-28 19:00:00 26.7 8 Oeste 18 Oeste 0 -- -- 39
2020-05-28 18:00:00 27.3 8 Oeste 16 Oeste 0 -- -- 37
2020-05-28 17:00:00 27 8 Oeste 18 Sur 0 -- -- 34
2020-05-28 16:00:00 26.8 11 Sudeste 18 Sudeste 0 -- -- 33
2020-05-28 15:00:00 26.5 4 Sudeste 24 Sudeste 0 -- -- 38
2020-05-28 14:00:00 25.1 8 Sudeste 22 Sudeste 0 -- -- 38
2020-05-28 13:00:00 24.6 9 Este 23 Sudeste 0 -- -- 45
2020-05-28 12:00:00 23.3 13 Sudeste 24 Sudeste 0 -- -- 48
2020-05-28 11:00:00 21.9 14 Sudeste 24 Este 0 -- -- 52
2020-05-28 10:00:00 20.4 15 Este 23 Sudeste 0 -- -- 56
2020-05-28 09:00:00 18.4 2 Norte 10 Este 0 -- -- 65
2020-05-28 08:00:00 15.4 6 Este 15 Sudeste 0 -- -- 76
2020-05-28 07:00:00 13.4 15 Sudeste 21 Sudeste 0 -- -- 78
2020-05-28 06:00:00 13.8 17 Sudeste 21 Sudeste 0 -- -- 76
2020-05-28 05:00:00 14.2 16 Sudeste 26 Sudeste 0 -- -- 75
2020-05-28 04:00:00 15.2 22 Sudeste 26 Sudeste 0 -- -- 76
2020-05-28 03:00:00 16.5 21 Sur 24 Sudeste 0 -- -- 76
2020-05-28 02:00:00 17 18 Sudeste 23 Sudeste 0 -- -- 79
2020-05-28 01:00:00 17.5 17 Sudeste 22 Sudeste 0 -- -- 81
2020-05-28 00:00:00 17.1 9 Sudeste 12 Sudeste 0 -- -- 85
2020-05-27 23:00:00 18.1 6 Sudeste 9 Sudeste 0 -- -- 85
2020-05-27 22:00:00 18.8 7 Sudeste 11 Sudeste 0 -- -- 86
2020-05-27 21:00:00 19.8 3 Sudeste 9 Sudeste 0 -- -- 81
2020-05-27 20:00:00 19.8 5 Sur 19 Oeste 0 -- -- 82
2020-05-27 19:00:00 19.1 12 Oeste 32 Nordeste 0 -- -- 84
2020-05-27 18:00:00 24.4 10 Este 18 Este 0 -- -- 56
2020-05-27 17:00:00 24.9 8 Oeste 20 Oeste 0 -- -- 53
2020-05-27 16:00:00 25.4 12 Oeste 18 Noroeste 0 -- -- 55
2020-05-27 15:00:00 26.6 9 Noroeste 19 Oeste 0 -- -- 55
2020-05-27 14:00:00 25.8 7 Oeste 18 Oeste 0 -- -- 56
2020-05-27 13:00:00 24.7 6 Oeste 16 Noroeste 0 -- -- 61
2020-05-27 12:00:00 22.9 8 Noroeste 13 Noroeste 0 -- -- 66
2020-05-27 11:00:00 20.8 7 Noroeste 10 Noroeste 0 -- -- 69
2020-05-27 10:00:00 18.9 3 Noroeste 10 Noroeste 0 -- -- 74
2020-05-27 09:00:00 16 6 Noroeste 8 Noroeste 0 -- -- 83
2020-05-27 08:00:00 13 5 Este 9 Sudeste 0 -- -- 90
2020-05-27 07:00:00 10.2 5 Sudeste 10 Sudeste 0 -- -- 96
2020-05-27 06:00:00 10.7 6 Sudeste 9 Sudeste 0 -- -- 95
2020-05-27 05:00:00 10.9 7 Sudeste 9 Sudeste 0 -- -- 95
2020-05-27 04:00:00 11.6 4 Sudeste 5 Sudeste 0 -- -- 95
2020-05-27 03:00:00 12.3 0 Calma 10 Oeste 0 -- -- 95
2020-05-27 02:00:00 13 6 Noroeste 17 Noroeste 0 -- -- 92
2020-05-27 01:00:00 14.3 15 Noroeste 24 Noroeste 0 -- -- 88
2020-05-27 00:00:00 15 19 Noroeste 27 Noroeste 0 -- -- 86
2020-05-26 23:00:00 15.9 19 Noroeste 33 Noroeste 0 -- -- 83
2020-05-26 22:00:00 16.7 21 Noroeste 29 Noroeste 0 -- -- 81
2020-05-26 21:00:00 19.1 23 Noroeste 41 Noroeste 0 -- -- 70
2020-05-26 20:00:00 20.7 30 Noroeste 40 Noroeste 0 -- -- 61
2020-05-26 19:00:00 22.1 26 Norte 39 Noroeste 0 -- -- 57
2020-05-26 18:00:00 23.8 27 Noroeste 37 Noroeste 0 -- -- 57
2020-05-26 17:00:00 24.6 24 Noroeste 39 Oeste 0 -- -- 54
2020-05-26 16:00:00 24.8 25 Oeste 37 Oeste 0 -- -- 56
2020-05-26 15:00:00 24.2 24 Oeste 33 Oeste 0 -- -- 58
2020-05-26 14:00:00 24 17 Oeste 26 Oeste 0 -- -- 60
2020-05-26 13:00:00 21.9 19 Noroeste 25 Oeste 0 -- -- 63
2020-05-26 12:00:00 21 7 Noroeste 15 Oeste 0 -- -- 60
2020-05-26 11:00:00 19 8 Noroeste 19 Noroeste 0 -- -- 70
2020-05-26 10:00:00 16.2 11 Noroeste 15 Noroeste 0 -- -- 75
2020-05-26 09:00:00 14.6 2 Sudoeste 8 Norte 0 -- -- 76
2020-05-26 08:00:00 12.2 0 Calma 4 Sudeste 0.6 -- -- 88
2020-05-26 07:00:00 11.4 0 Calma 5 Sudeste 0 -- -- 85
2020-05-26 06:00:00 11.4 2 Norte 8 Noroeste 0 -- -- 80
2020-05-26 05:00:00 11.4 6 Noroeste 13 Noroeste 0 -- -- 80
2020-05-26 04:00:00 11.2 9 Oeste 20 Noroeste 0 -- -- 80
2020-05-26 03:00:00 12 14 Noroeste 27 Noroeste 0 -- -- 75
2020-05-26 02:00:00 12.1 18 Noroeste 30 Noroeste 0 -- -- 75
2020-05-26 01:00:00 12.8 22 Noroeste 31 Noroeste 0 -- -- 75
2020-05-26 00:00:00 13.1 23 Noroeste 33 Noroeste 0 -- -- 81
2020-05-25 23:00:00 13.9 24 Noroeste 37 Noroeste 0 -- -- 81
2020-05-25 22:00:00 14.6 26 Noroeste 35 Noroeste 0 -- -- 80
2020-05-25 21:00:00 16.6 26 Noroeste 42 Oeste 0 -- -- 74
2020-05-25 20:00:00 18.5 29 Oeste 44 Oeste 0 -- -- 70
2020-05-25 19:00:00 19.8 27 Noroeste 39 Oeste 0 -- -- 70
2020-05-25 18:00:00 20.8 21 Norte 30 Noroeste 0 -- -- 62
2020-05-25 17:00:00 20.9 17 Oeste 26 Oeste 0 -- -- 69
2020-05-25 16:00:00 21.1 18 Noroeste 22 Oeste 0 -- -- 70
2020-05-25 15:00:00 20.5 12 Oeste 17 Oeste 0 -- -- 69
2020-05-25 14:00:00 18.2 10 Noroeste 14 Oeste 0 -- -- 73
2020-05-25 13:00:00 17.2 9 Noroeste 12 Noroeste 0 -- -- 76
2020-05-25 12:00:00 17.7 6 Noroeste 11 Noroeste 0 -- -- 71
2020-05-25 11:00:00 15.8 4 Noroeste 8 Noroeste 0 -- -- 76
2020-05-25 10:00:00 14.8 4 Noroeste 11 Noroeste 0 -- -- 77
2020-05-25 09:00:00 13.9 8 Noroeste 14 Noroeste 0 -- -- 84
2020-05-25 08:00:00 13.3 3 Norte 8 Noroeste 0 -- -- 84
2020-05-25 07:00:00 12 0 Calma -- -- 0 -- -- 92
2020-05-25 06:00:00 12 0 Calma 3 Sudeste 0 -- -- 90
2020-05-25 05:00:00 12 0 Calma 2 Este 0 -- -- 91
2020-05-25 04:00:00 12.2 0 Calma 7 Oeste 0 -- -- 92
2020-05-25 03:00:00 12.5 6 Noroeste 15 Noroeste 0 -- -- 89
2020-05-25 02:00:00 12.8 12 Noroeste 18 Noroeste 0 -- -- 86
2020-05-25 01:00:00 13.4 16 Noroeste 22 Noroeste 0 -- -- 85
2020-05-25 00:00:00 13.5 18 Noroeste 24 Noroeste 0 -- -- 85
2020-05-24 23:00:00 14 17 Noroeste 23 Noroeste 0 -- -- 82
2020-05-24 22:00:00 14.7 17 Noroeste 25 Noroeste 0 -- -- 79
2020-05-24 21:00:00 15.9 17 Noroeste 34 Oeste 0 -- -- 76
2020-05-24 20:00:00 17.9 27 Noroeste 37 Noroeste 0 -- -- 69
2020-05-24 19:00:00 19.6 27 Noroeste 37 Oeste 0 -- -- 65
2020-05-24 18:00:00 20.6 27 Oeste 40 Oeste 0 -- -- 63
2020-05-24 17:00:00 21.7 23 Oeste 34 Oeste 0 -- -- 62
2020-05-24 16:00:00 21.8 17 Oeste 26 Oeste 0 -- -- 59
2020-05-24 15:00:00 21 16 Oeste 23 Oeste 0 -- -- 62
2020-05-24 14:00:00 20 14 Oeste 21 Noroeste 0 -- -- 64
2020-05-24 13:00:00 18.1 15 Oeste 24 Noroeste 0 -- -- 67
2020-05-24 12:00:00 16.4 18 Noroeste 26 Oeste 0 -- -- 69
2020-05-24 11:00:00 14.6 16 Noroeste 26 Noroeste 0 -- -- 73
2020-05-24 10:00:00 12.9 20 Noroeste 28 Noroeste 0 -- -- 77
2020-05-24 09:00:00 11.9 21 Noroeste 27 Noroeste 0 -- -- 80
2020-05-24 08:00:00 10.3 18 Noroeste 27 Noroeste 0 -- -- 85
2020-05-24 07:00:00 8.9 18 Noroeste 26 Noroeste 0 -- -- 92
2020-05-24 06:00:00 9.5 17 Noroeste 27 Noroeste 0 -- -- 92
2020-05-24 05:00:00 10 22 Noroeste 31 Noroeste 0 -- -- 91
2020-05-24 04:00:00 10.6 23 Noroeste 32 Noroeste 0 -- -- 89
2020-05-24 03:00:00 11.3 23 Noroeste 31 Noroeste 0 -- -- 87
2020-05-24 02:00:00 11.5 21 Noroeste 34 Noroeste 0 -- -- 85
2020-05-24 01:00:00 11.3 23 Noroeste 41 Noroeste 0 -- -- 87
2020-05-24 00:00:00 11.2 26 Noroeste 36 Noroeste 0 -- -- 89
2020-05-23 23:00:00 11.6 23 Noroeste 42 Noroeste 0 -- -- 88
2020-05-23 22:00:00 11.9 31 Noroeste 48 Noroeste 0 -- -- 86
2020-05-23 21:00:00 12.5 31 Noroeste 48 Noroeste 0 -- -- 81
2020-05-23 20:00:00 14.2 32 Noroeste 53 Noroeste 0 -- -- 74
2020-05-23 19:00:00 15.4 33 Noroeste 55 Noroeste 0 -- -- 69
2020-05-23 18:00:00 14.9 44 Norte 58 Noroeste 0 -- -- 70
2020-05-23 17:00:00 16.1 27 Noroeste 47 Norte 0 -- -- 73
2020-05-23 16:00:00 18.3 26 Noroeste 48 Noroeste 0 -- -- 63
2020-05-23 15:00:00 18.4 32 Noroeste 45 Noroeste 0 -- -- 67
2020-05-23 14:00:00 17.1 32 Noroeste 46 Oeste 0 -- -- 73
2020-05-23 13:00:00 17.2 32 Noroeste 46 Noroeste 0 -- -- 76
2020-05-23 12:00:00 17.8 31 Noroeste 42 Noroeste 0 -- -- 78
2020-05-23 11:00:00 16.6 28 Noroeste 36 Noroeste 0 -- -- 81
2020-05-23 10:00:00 16.5 23 Noroeste 36 Noroeste 0 -- -- 82
2020-05-23 09:00:00 15.2 23 Noroeste 31 Noroeste 0 -- -- 87
2020-05-23 08:00:00 14.6 17 Noroeste 27 Noroeste 0 -- -- 89
2020-05-23 07:00:00 13.8 19 Noroeste 28 Noroeste 0 -- -- 92
2020-05-23 06:00:00 13.9 19 Noroeste 30 Noroeste 0 -- -- 92
2020-05-23 05:00:00 14.3 22 Noroeste 35 Noroeste 0 -- -- 90
2020-05-23 04:00:00 14.6 25 Noroeste 36 Noroeste 0 -- -- 90
2020-05-23 03:00:00 14.8 22 Noroeste 30 Noroeste 0 -- -- 91
2020-05-23 02:00:00 15.1 18 Noroeste 30 Noroeste 0 -- -- 91
2020-05-23 01:00:00 15.3 18 Noroeste 26 Noroeste 0 -- -- 93
2020-05-23 00:00:00 15.8 18 Noroeste 32 Noroeste 0 -- -- 93
2020-05-22 23:00:00 16.6 22 Noroeste 36 Noroeste 0 -- -- 90
2020-05-22 22:00:00 17.9 27 Noroeste 41 Noroeste 0 -- -- 87
2020-05-22 21:00:00 21.4 32 Noroeste 43 Noroeste 0 -- -- 77
2020-05-22 20:00:00 26.7 18 Noroeste 23 Noroeste 0 -- -- 61
2020-05-22 19:00:00 29.2 7 Sur 21 Sudeste 0 -- -- 40
2020-05-22 18:00:00 29.4 12 Sudeste 17 Este 0 -- -- 42
2020-05-22 17:00:00 29.3 6 Oeste 20 Noroeste 0 -- -- 46
2020-05-22 16:00:00 28.8 13 Noroeste 19 Noroeste 0 -- -- 52
2020-05-22 15:00:00 27.8 8 Noroeste 15 Noroeste 0 -- -- 58
2020-05-22 14:00:00 26.9 5 Oeste 13 Oeste 0 -- -- 57
2020-05-22 13:00:00 24.4 8 Noroeste 19 Noroeste 0 -- -- 63
2020-05-22 12:00:00 22 16 Noroeste 28 Noroeste 0 -- -- 71
2020-05-22 11:00:00 21.1 18 Noroeste 23 Noroeste 0 -- -- 69
2020-05-22 10:00:00 20 5 Noroeste 9 Noroeste 0 -- -- 71
2020-05-22 09:00:00 17.2 6 Noroeste 9 Noroeste 0 -- -- 78
2020-05-22 08:00:00 13.6 4 Sudeste 10 Sudeste 0 -- -- 87
2020-05-22 07:00:00 11.9 9 Sudeste 11 Sudeste 0 -- -- 91
2020-05-22 06:00:00 11.8 8 Este 10 Sudeste 0 -- -- 91
2020-05-22 05:00:00 13.1 0 Calma 10 Este 0 -- -- 88
2020-05-22 04:00:00 13.9 9 Sudeste 12 Sudeste 0 -- -- 85
2020-05-22 03:00:00 13.4 10 Sudeste 12 Este 0 -- -- 82
2020-05-22 02:00:00 13.9 8 Sudeste 11 Sudeste 0 -- -- 81
2020-05-22 01:00:00 14 11 Sudeste 15 Sudeste 0 -- -- 82
2020-05-22 00:00:00 14.3 13 Sudeste 15 Sudeste 0 -- -- 83
2020-05-21 23:00:00 15.4 12 Sudeste 14 Sudeste 0 -- -- 82
2020-05-21 22:00:00 17.6 13 Sudeste 14 Sudeste 0 -- -- 78
2020-05-21 21:00:00 21.1 10 Sur 16 Sur 0 -- -- 61
2020-05-21 20:00:00 25.6 4 Oeste 13 Noroeste 0 -- -- 51
2020-05-21 19:00:00 27.4 9 Noroeste 13 Oeste 0 -- -- 46
2020-05-21 18:00:00 27.4 9 Noroeste 18 Noroeste 0 -- -- 45
2020-05-21 17:00:00 27.2 10 Noroeste 19 Noroeste 0 -- -- 49
2020-05-21 16:00:00 26.4 13 Noroeste 21 Noroeste 0 -- -- 50
2020-05-21 15:00:00 25.5 15 Noroeste 21 Noroeste 0 -- -- 55
2020-05-21 14:00:00 24.5 14 Noroeste 24 Noroeste 0 -- -- 57
2020-05-21 13:00:00 22.8 12 Noroeste 22 Oeste 0 -- -- 58
2020-05-21 12:00:00 21.3 6 Noroeste 12 Noroeste 0 -- -- 62
2020-05-21 11:00:00 18.3 6 Noroeste 13 Noroeste 0 -- -- 70
2020-05-21 10:00:00 16.5 7 Noroeste 12 Noroeste 0 -- -- 71
2020-05-21 09:00:00 14.5 10 Noroeste 24 Noroeste 0 -- -- 77
2020-05-21 08:00:00 12.6 19 Noroeste 32 Noroeste 0 -- -- 82
2020-05-21 07:00:00 12 22 Noroeste 32 Noroeste 0 -- -- 86
2020-05-21 06:00:00 11.7 23 Noroeste 33 Noroeste 0 -- -- 88
2020-05-21 05:00:00 13 22 Noroeste 35 Noroeste 0 -- -- 74
2020-05-21 04:00:00 13.7 23 Noroeste 33 Noroeste 0 -- -- 65
2020-05-21 03:00:00 14.6 21 Noroeste 30 Noroeste 0 -- -- 63
2020-05-21 02:00:00 14.9 22 Noroeste 31 Noroeste 0 -- -- 64
2020-05-21 01:00:00 15.4 23 Noroeste 30 Noroeste 0 -- -- 66
2020-05-21 00:00:00 16 21 Noroeste 32 Noroeste 0 -- -- 72
2020-05-20 23:00:00 17 19 Noroeste 25 Noroeste 0 -- -- 73
2020-05-20 22:00:00 18.4 18 Noroeste 26 Noroeste 0 -- -- 65
2020-05-20 21:00:00 20.9 20 Noroeste 28 Noroeste 0 -- -- 55
2020-05-20 20:00:00 23 22 Norte 29 Norte 0 -- -- 53
2020-05-20 19:00:00 24.4 19 Noroeste 31 Norte 0 -- -- 49
2020-05-20 18:00:00 25.4 21 Noroeste 36 Noroeste 0 -- -- 47
2020-05-20 17:00:00 25.9 22 Noroeste 33 Noroeste 0 -- -- 43
2020-05-20 16:00:00 26.1 21 Oeste 31 Oeste 0 -- -- 44
2020-05-20 15:00:00 25.8 21 Oeste 26 Oeste 0 -- -- 43
2020-05-20 14:00:00 25.6 14 Oeste 22 Noroeste 0 -- -- 45
2020-05-20 13:00:00 23.7 14 Noroeste 22 Noroeste 0 -- -- 50
2020-05-20 12:00:00 21.7 16 Noroeste 23 Noroeste 0 -- -- 58
2020-05-20 11:00:00 20 12 Noroeste 17 Noroeste 0 -- -- 62
2020-05-20 10:00:00 17.7 6 Noroeste 13 Noroeste 0 -- -- 69
2020-05-20 09:00:00 14.8 4 Noroeste 6 Oeste 0 -- -- 77
2020-05-20 08:00:00 11.3 3 Este 8 Sudeste 0 -- -- 90
2020-05-20 07:00:00 8.9 5 Sudeste 6 Este 0 -- -- 94
2020-05-20 06:00:00 9.2 3 Nordeste 6 Norte 0 -- -- 91
2020-05-20 05:00:00 11.2 3 Norte 5 Noroeste 0 -- -- 83
2020-05-20 04:00:00 10.8 2 Noroeste 9 Noroeste 0 -- -- 84
2020-05-20 03:00:00 12 9 Noroeste 28 Noroeste 0 -- -- 80
2020-05-20 02:00:00 12.6 17 Noroeste 31 Noroeste 0 -- -- 79
2020-05-20 01:00:00 13.2 24 Noroeste 33 Noroeste 0 -- -- 80
2020-05-20 00:00:00 14 20 Noroeste 29 Noroeste 0 -- -- 80
2020-05-19 23:00:00 13.8 20 Noroeste 30 Noroeste 0 -- -- 79
2020-05-19 22:00:00 15.3 22 Noroeste 37 Noroeste 0 -- -- 77
2020-05-19 21:00:00 17.5 29 Noroeste 39 Oeste 0 -- -- 69
2020-05-19 20:00:00 19.4 25 Noroeste 39 Noroeste 0 -- -- 64
2020-05-19 19:00:00 20.9 22 Noroeste 46 Norte 0 -- -- 58
2020-05-19 18:00:00 21.2 35 Noroeste 46 Noroeste 0 -- -- 55
2020-05-19 17:00:00 21.6 34 Noroeste 49 Noroeste 0 -- -- 54
2020-05-19 16:00:00 22.1 31 Noroeste 46 Noroeste 0 -- -- 51
2020-05-19 15:00:00 22.3 24 Noroeste 51 Noroeste 0 -- -- 52
2020-05-19 14:00:00 22.1 22 Noroeste 40 Noroeste 0 -- -- 47
2020-05-19 13:00:00 21.7 21 Noroeste 39 Noroeste 0 -- -- 49
2020-05-19 12:00:00 20.6 26 Noroeste 47 Noroeste 0 -- -- 50
2020-05-19 11:00:00 18.4 25 Noroeste 48 Noroeste 0 -- -- 62
2020-05-19 10:00:00 15.3 33 Noroeste 49 Noroeste 0 -- -- 72
2020-05-19 09:00:00 13.1 30 Noroeste 42 Noroeste 0 -- -- 81
2020-05-19 08:00:00 11.1 32 Noroeste 40 Noroeste 0 -- -- 87
2020-05-19 07:00:00 10.2 22 Noroeste 31 Noroeste 0 -- -- 89
2020-05-19 06:00:00 10.2 22 Noroeste 37 Noroeste 0 -- -- 88
2020-05-19 05:00:00 10.2 31 Noroeste 48 Noroeste 0 -- -- 86
2020-05-19 04:00:00 10.4 37 Noroeste 51 Noroeste 0 -- -- 84
2020-05-19 03:00:00 10 15 Noroeste 40 Noroeste 0 -- -- 84
2020-05-19 02:00:00 11 27 Noroeste 39 Noroeste 0 -- -- 79
2020-05-19 01:00:00 10.8 20 Noroeste 34 Noroeste 0 -- -- 81
2020-05-19 00:00:00 11.3 26 Noroeste 34 Noroeste 0 -- -- 78
2020-05-18 23:00:00 11.8 21 Noroeste 39 Noroeste 0 -- -- 78
2020-05-18 22:00:00 12.9 30 Noroeste 50 Noroeste 0 -- -- 78
2020-05-18 21:00:00 15.4 27 Noroeste 48 Noroeste 0 -- -- 71
2020-05-18 20:00:00 16.7 27 Noroeste 49 Noroeste 0 -- -- 67
2020-05-18 19:00:00 18.1 29 Noroeste 53 Noroeste 0 -- -- 62
2020-05-18 18:00:00 18.8 39 Noroeste 50 Noroeste 0 -- -- 60
2020-05-18 17:00:00 19.9 31 Noroeste 50 Noroeste 0 -- -- 52
2020-05-18 16:00:00 20.2 30 Noroeste 46 Norte 0 -- -- 52
2020-05-18 15:00:00 19.8 29 Noroeste 48 Noroeste 0 -- -- 51
2020-05-18 14:00:00 19.9 26 Noroeste 42 Noroeste 0 -- -- 51
2020-05-18 13:00:00 19.5 31 Noroeste 51 Noroeste 0 -- -- 45
2020-05-18 12:00:00 18.9 29 Noroeste 42 Noroeste 0 -- -- 51
2020-05-18 11:00:00 16.6 27 Noroeste 44 Noroeste 0 -- -- 63
2020-05-18 10:00:00 13.7 31 Noroeste 41 Noroeste 0 -- -- 75
2020-05-18 09:00:00 12 23 Noroeste 36 Noroeste 0 -- -- 80
2020-05-18 08:00:00 9.8 29 Noroeste 39 Noroeste 0 -- -- 84
2020-05-18 07:00:00 9 22 Noroeste 32 Noroeste 0 -- -- 85
2020-05-18 06:00:00 8.9 22 Noroeste 30 Noroeste 0 -- -- 84
2020-05-18 05:00:00 8.5 15 Noroeste 27 Noroeste 0 -- -- 84
2020-05-18 04:00:00 9 19 Noroeste 26 Noroeste 0 -- -- 81
2020-05-18 03:00:00 9.1 17 Noroeste 35 Norte 0 -- -- 83
2020-05-18 02:00:00 9.2 22 Noroeste 36 Norte 0 -- -- 84
2020-05-18 01:00:00 9.4 23 Noroeste 41 Noroeste 0 -- -- 85
2020-05-18 00:00:00 10 28 Noroeste 36 Noroeste 0 -- -- 84
2020-05-17 23:00:00 10.4 24 Noroeste 46 Noroeste 0 -- -- 83
2020-05-17 22:00:00 11.8 28 Noroeste 38 Noroeste 0 -- -- 80
2020-05-17 21:00:00 14.1 27 Noroeste 44 Noroeste 0 -- -- 71
2020-05-17 20:00:00 15.6 23 Noroeste 44 Norte 0 -- -- 65
2020-05-17 19:00:00 16.4 36 Noroeste 50 Noroeste 0 -- -- 60
2020-05-17 18:00:00 17.9 32 Noroeste 43 Norte 0 -- -- 54
2020-05-17 17:00:00 18.3 31 Norte 39 Norte 0 -- -- 53
2020-05-17 16:00:00 19 23 Noroeste 35 Noroeste 0 -- -- 51
2020-05-17 15:00:00 18.7 22 Noroeste 43 Noroeste 0 -- -- 54
2020-05-17 14:00:00 17.6 24 Norte 44 Noroeste 0 -- -- 51
2020-05-17 13:00:00 16.6 24 Noroeste 52 Noroeste 0 -- -- 53
2020-05-17 12:00:00 15.9 23 Noroeste 53 Noroeste 0 -- -- 59
2020-05-17 11:00:00 13.7 36 Noroeste 52 Oeste 0 -- -- 73
2020-05-17 10:00:00 11.7 32 Noroeste 45 Oeste 0 -- -- 78
2020-05-17 09:00:00 10.3 23 Noroeste 34 Oeste 0 -- -- 81
2020-05-17 08:00:00 8.9 17 Noroeste 26 Noroeste 0 -- -- 86
2020-05-17 07:00:00 7.7 17 Noroeste 26 Noroeste 0 -- -- 91
2020-05-17 06:00:00 7.9 18 Noroeste 28 Noroeste 0 -- -- 89
2020-05-17 05:00:00 8.5 19 Noroeste 27 Noroeste 0 -- -- 87
2020-05-17 04:00:00 8.6 21 Noroeste 30 Noroeste 0 -- -- 88
2020-05-17 03:00:00 10 24 Noroeste 44 Norte 0 -- -- 79
2020-05-17 02:00:00 9.9 25 Noroeste 38 Noroeste 0 -- -- 79
2020-05-17 01:00:00 10.1 21 Noroeste 38 Noroeste 0 -- -- 82
2020-05-17 00:00:00 11.2 25 Noroeste 37 Noroeste 0 -- -- 78
2020-05-16 23:00:00 11 18 Noroeste 38 Noroeste 0 -- -- 81
2020-05-16 22:00:00 11.1 23 Noroeste 38 Noroeste 0 -- -- 80
2020-05-16 21:00:00 11.9 26 Noroeste 42 Noroeste 0 -- -- 79
2020-05-16 20:00:00 12.7 28 Noroeste 44 Noroeste 0 -- -- 75
2020-05-16 19:00:00 13.4 31 Noroeste 46 Noroeste 0 -- -- 71
2020-05-16 18:00:00 14.5 32 Noroeste 49 Noroeste 0 -- -- 67
2020-05-16 17:00:00 15.2 32 Noroeste 47 Noroeste 0 -- -- 69
2020-05-16 16:00:00 15.7 33 Noroeste 46 Noroeste 0 -- -- 70
2020-05-16 15:00:00 14.6 32 Noroeste 44 Noroeste 0 -- -- 76
2020-05-16 14:00:00 14.5 27 Noroeste 41 Noroeste 0 -- -- 76
2020-05-16 13:00:00 13.9 24 Noroeste 42 Noroeste 0 -- -- 77
2020-05-16 12:00:00 12.6 30 Noroeste 43 Noroeste 0 -- -- 81
2020-05-16 11:00:00 12.7 25 Noroeste 36 Noroeste 0 -- -- 81
2020-05-16 10:00:00 12.3 22 Noroeste 32 Noroeste 0 -- -- 85
2020-05-16 09:00:00 9.9 21 Noroeste 30 Noroeste 0 -- -- 94
2020-05-16 08:00:00 9.5 20 Noroeste 30 Noroeste 0 -- -- 93
2020-05-16 07:00:00 9.4 21 Noroeste 29 Noroeste 0 -- -- 92
2020-05-16 06:00:00 9.3 23 Noroeste 32 Noroeste 0 -- -- 91
2020-05-16 05:00:00 9.2 21 Noroeste 29 Noroeste 0 -- -- 90
2020-05-16 04:00:00 8.9 17 Noroeste 23 Noroeste 0 -- -- 92
2020-05-16 03:00:00 8.6 17 Noroeste 26 Noroeste 0 -- -- 93
2020-05-16 02:00:00 8.4 16 Noroeste 26 Noroeste 0 -- -- 92
2020-05-16 01:00:00 8.1 17 Noroeste 28 Noroeste 0.2 -- -- 93
2020-05-16 00:00:00 8.4 25 Noroeste 35 Noroeste 0.2 -- -- 89
2020-05-15 23:00:00 8.9 26 Noroeste 35 Noroeste 0 -- -- 85
2020-05-15 22:00:00 9.4 23 Noroeste 35 Noroeste 0 -- -- 88
2020-05-15 21:00:00 9.5 25 Noroeste 34 Noroeste 0 -- -- 92
2020-05-15 20:00:00 9.5 17 Noroeste 30 Noroeste 0.6 -- -- 95
2020-05-15 19:00:00 10 21 Noroeste 32 Noroeste 1 -- -- 93
2020-05-15 18:00:00 10.8 22 Noroeste 38 Noroeste 0 -- -- 87
2020-05-15 17:00:00 10.9 27 Noroeste 40 Noroeste 0 -- -- 85
2020-05-15 16:00:00 11.4 26 Noroeste 39 Noroeste 0 -- -- 85
2020-05-15 15:00:00 11.4 27 Noroeste 37 Noroeste 0 -- -- 85
2020-05-15 14:00:00 11 27 Noroeste 40 Noroeste 0 -- -- 86
2020-05-15 13:00:00 11.6 31 Noroeste 38 Noroeste 0 -- -- 85
2020-05-15 12:00:00 11.3 23 Noroeste 33 Noroeste 0 -- -- 88
2020-05-15 11:00:00 11.4 24 Noroeste 36 Noroeste 0 -- -- 85
2020-05-15 10:00:00 10.5 23 Noroeste 30 Noroeste 0 -- -- 91
2020-05-15 09:00:00 9.7 24 Noroeste 31 Noroeste 0 -- -- 95
2020-05-15 08:00:00 9.7 19 Noroeste 27 Noroeste 0 -- -- 92
2020-05-15 07:00:00 9.3 19 Noroeste 27 Noroeste 0 -- -- 94
2020-05-15 06:00:00 9.3 19 Noroeste 27 Noroeste 0 -- -- 93
2020-05-15 05:00:00 9.4 21 Noroeste 28 Noroeste 0 -- -- 91
2020-05-15 04:00:00 9.4 21 Noroeste 33 Noroeste 0 -- -- 89
2020-05-15 03:00:00 9.5 22 Noroeste 43 Noroeste 0 -- -- 89
2020-05-15 02:00:00 9.9 19 Noroeste 33 Noroeste 0 -- -- 90
2020-05-15 01:00:00 10 22 Noroeste 28 Noroeste 0 -- -- 90
2020-05-15 00:00:00 10.1 21 Noroeste 26 Noroeste 0 -- -- 90
2020-05-14 23:00:00 10 19 Noroeste 28 Noroeste 0 -- -- 90
2020-05-14 22:00:00 10.1 21 Noroeste 36 Noroeste 0 -- -- 90
2020-05-14 21:00:00 10.5 32 Noroeste 40 Noroeste 0 -- -- 88
2020-05-14 20:00:00 11.3 28 Noroeste 44 Noroeste 0 -- -- 87
2020-05-14 19:00:00 11.8 32 Noroeste 41 Noroeste 0 -- -- 85
2020-05-14 18:00:00 12.7 29 Noroeste 41 Noroeste 0 -- -- 84
2020-05-14 17:00:00 14.3 27 Noroeste 35 Oeste 0 -- -- 81
2020-05-14 16:00:00 14.2 17 Noroeste 32 Oeste 0 -- -- 82
2020-05-14 15:00:00 14 24 Oeste 32 Oeste 0 -- -- 82
2020-05-14 14:00:00 13.6 25 Noroeste 32 Noroeste 0 -- -- 83
2020-05-14 13:00:00 14.1 22 Noroeste 30 Noroeste 0 -- -- 81
2020-05-14 12:00:00 14.6 18 Noroeste 27 Noroeste 0 -- -- 80
2020-05-14 11:00:00 13 14 Noroeste 19 Noroeste 0 -- -- 83
2020-05-14 10:00:00 11.4 9 Noroeste 18 Noroeste 0 -- -- 92
2020-05-14 09:00:00 10.6 12 Noroeste 17 Noroeste 0 -- -- 94
2020-05-14 08:00:00 10.1 9 Noroeste 14 Noroeste 0 -- -- 99
2020-05-14 07:00:00 8.8 0 Calma 7 Noroeste 0 -- -- 99
2020-05-14 06:00:00 8.4 2 Este 5 Sudoeste 0 -- -- 99
2020-05-14 05:00:00 8.6 3 Noroeste 13 Noroeste 0 -- -- 99
2020-05-14 04:00:00 8.6 0 Calma 3 Sudoeste 0 -- -- 99
2020-05-14 03:00:00 8.3 2 Sudoeste 8 Norte 0 -- -- 99
2020-05-14 02:00:00 8.3 0 Calma 12 Noroeste 0 -- -- 98
2020-05-14 01:00:00 8.8 4 Noroeste 7 Noroeste 0 -- -- 98
2020-05-14 00:00:00 9.3 3 Noroeste 17 Noroeste 0 -- -- 96
2020-05-13 23:00:00 10.3 13 Noroeste 18 Noroeste 0 -- -- 94
2020-05-13 22:00:00 12 12 Noroeste 20 Noroeste 0 -- -- 88
2020-05-13 21:00:00 14 12 Noroeste 17 Oeste 0 -- -- 81
2020-05-13 20:00:00 15.1 9 Noroeste 16 Oeste 0 -- -- 76
2020-05-13 19:00:00 15.1 11 Noroeste 16 Noroeste 0 -- -- 78
2020-05-13 18:00:00 15.3 6 Noroeste 13 Norte 0 -- -- 77
2020-05-13 17:00:00 15.1 9 Norte 18 Noroeste 0 -- -- 75
2020-05-13 16:00:00 15.9 10 Noroeste 17 Noroeste 0 -- -- 70
2020-05-13 15:00:00 15.1 3 Sudoeste 15 Sur 0 -- -- 73
2020-05-13 14:00:00 14.3 9 Noroeste 19 Noroeste 0 -- -- 77
2020-05-13 13:00:00 14.5 10 Noroeste 18 Noroeste 0 -- -- 79
2020-05-13 12:00:00 12.5 13 Noroeste 19 Noroeste 0 -- -- 88
2020-05-13 11:00:00 11 7 Noroeste 15 Noroeste 0.2 -- -- 98
2020-05-13 10:00:00 9.5 13 Noroeste 22 Noroeste 5.6 -- -- 99
2020-05-13 09:00:00 10 7 Noroeste 28 Sudeste 0.2 -- -- 96
2020-05-13 08:00:00 10.2 14 Sudeste 22 Sudeste 1 -- -- 96
2020-05-13 07:00:00 9.9 0 Calma 6 Sudeste 1.6 -- -- 98
2020-05-13 06:00:00 9.9 6 Sudeste 19 Este 3 -- -- 97
2020-05-13 05:00:00 10.2 14 Sudeste 36 Sudeste 1.2 -- -- 96
2020-05-13 04:00:00 10.5 9 Sur 25 Sudeste 1.8 -- -- 99
2020-05-13 03:00:00 10.3 13 Noroeste 24 Noroeste 4.4 -- -- 99
2020-05-13 02:00:00 10.6 15 Noroeste 28 Noroeste 5.8 -- -- 99
2020-05-13 01:00:00 11.1 16 Noroeste 21 Noroeste 1.6 -- -- 98
2020-05-13 00:00:00 11.3 8 Noroeste 14 Noroeste 0.2 -- -- 98
2020-05-12 23:00:00 11.6 10 Noroeste 13 Noroeste 1 -- -- 98
2020-05-12 22:00:00 11.9 8 Noroeste 18 Noroeste 1.6 -- -- 97
2020-05-12 21:00:00 13.4 3 Noroeste 12 Sudeste 0.2 -- -- 84
2020-05-12 20:00:00 14.5 13 Sudeste 29 Sudeste 0 -- -- 79
2020-05-12 19:00:00 15.7 19 Sudeste 27 Sur 0 -- -- 71
2020-05-12 18:00:00 17.7 3 Sudeste 15 Sudeste 0 -- -- 61
2020-05-12 17:00:00 17.8 9 Sudeste 15 Sudeste 0 -- -- 64
2020-05-12 16:00:00 18.1 4 Oeste 11 Oeste 0 -- -- 64
2020-05-12 15:00:00 18 4 Oeste 14 Sudeste 0 -- -- 66
2020-05-12 14:00:00 18.4 5 Sur 20 Sudeste 0 -- -- 62
2020-05-12 13:00:00 17 7 Sudeste 18 Sur 0 -- -- 73
2020-05-12 12:00:00 15.1 4 Norte 13 Nordeste 0 -- -- 69
2020-05-12 11:00:00 13.8 6 Noroeste 12 Noroeste 0 -- -- 73
2020-05-12 10:00:00 12 6 Noroeste 17 Noroeste 0 -- -- 79
2020-05-12 09:00:00 10.6 12 Noroeste 18 Noroeste 0 -- -- 84
2020-05-12 08:00:00 10 14 Noroeste 19 Noroeste 0 -- -- 87
2020-05-12 07:00:00 8.8 2 Norte 14 Norte 0 -- -- 92
2020-05-12 06:00:00 9.1 6 Norte 17 Norte 0 -- -- 89
2020-05-12 05:00:00 9.9 11 Noroeste 17 Noroeste 0 -- -- 91
2020-05-12 04:00:00 9.8 15 Noroeste 21 Noroeste 0 -- -- 91
2020-05-12 03:00:00 10.4 13 Noroeste 19 Noroeste 0 -- -- 92
2020-05-12 02:00:00 10.1 15 Noroeste 25 Noroeste 0 -- -- 92
2020-05-12 01:00:00 11 21 Noroeste 27 Noroeste 0 -- -- 89
2020-05-12 00:00:00 11.5 17 Noroeste 28 Noroeste 0 -- -- 86
2020-05-11 23:00:00 11.7 18 Noroeste 24 Noroeste 0 -- -- 85
2020-05-11 22:00:00 12.2 6 Norte 41 Noroeste 0 -- -- 85
2020-05-11 21:00:00 13 33 Noroeste 43 Noroeste 0 -- -- 79
2020-05-11 20:00:00 13.9 28 Noroeste 46 Noroeste 0 -- -- 74
2020-05-11 19:00:00 15 36 Noroeste 46 Noroeste 0 -- -- 66
2020-05-11 18:00:00 15.6 29 Noroeste 42 Noroeste 0 -- -- 63
2020-05-11 17:00:00 16.2 23 Noroeste 36 Noroeste 0 -- -- 65
2020-05-11 16:00:00 18.7 25 Noroeste 33 Noroeste 0 -- -- 60
2020-05-11 15:00:00 17.8 10 Noroeste 31 Norte 0 -- -- 66
2020-05-11 14:00:00 16.9 17 Noroeste 24 Noroeste 0 -- -- 70
2020-05-11 13:00:00 14.2 12 Noroeste 21 Noroeste 0 -- -- 74
2020-05-11 12:00:00 14.2 13 Noroeste 22 Noroeste 0 -- -- 78
2020-05-11 11:00:00 13 16 Noroeste 27 Noroeste 0 -- -- 79
2020-05-11 10:00:00 12.2 10 Oeste 18 Noroeste 0 -- -- 81
2020-05-11 09:00:00 11.4 9 Noroeste 25 Oeste 0.2 -- -- 87
2020-05-11 08:00:00 10.7 3 Norte 13 Noroeste 0 -- -- 89
2020-05-11 07:00:00 10.3 3 Oeste 14 Noroeste 0 -- -- 92
2020-05-11 06:00:00 10.2 6 Noroeste 20 Noroeste 0 -- -- 93
2020-05-11 05:00:00 10.2 14 Noroeste 22 Noroeste 0 -- -- 94
2020-05-11 04:00:00 10.2 14 Noroeste 31 Oeste 0.6 -- -- 95
2020-05-11 03:00:00 10.2 18 Noroeste 26 Noroeste 0 -- -- 95
2020-05-11 02:00:00 10.3 17 Noroeste 27 Noroeste 0.4 -- -- 98
2020-05-11 01:00:00 10.5 13 Noroeste 22 Oeste 1.6 -- -- 98
2020-05-11 00:00:00 10.7 12 Noroeste 20 Oeste 1.2 -- -- 98
2020-05-10 23:00:00 10.7 15 Noroeste 22 Noroeste 1.6 -- -- 98
2020-05-10 22:00:00 10.8 16 Noroeste 23 Oeste 2.4 -- -- 98
2020-05-10 21:00:00 10.9 17 Noroeste 34 Noroeste 4.2 -- -- 98
2020-05-10 20:00:00 11.9 16 Noroeste 27 Noroeste 0.8 -- -- 96
2020-05-10 19:00:00 12 16 Noroeste 26 Oeste 0.8 -- -- 95
2020-05-10 18:00:00 11.5 21 Oeste 37 Oeste 1.6 -- -- 96
2020-05-10 17:00:00 13.3 17 Noroeste 26 Noroeste 0 -- -- 84
2020-05-10 16:00:00 13.8 9 Norte 24 Noroeste 0 -- -- 81
2020-05-10 15:00:00 14.2 18 Noroeste 24 Noroeste 0 -- -- 81
2020-05-10 14:00:00 13.4 16 Noroeste 22 Noroeste 0 -- -- 86
2020-05-10 13:00:00 13.2 14 Noroeste 21 Noroeste 0 -- -- 88
2020-05-10 12:00:00 12.4 14 Noroeste 24 Noroeste 0 -- -- 91
2020-05-10 11:00:00 11.8 16 Noroeste 22 Noroeste 0.4 -- -- 94
2020-05-10 10:00:00 11.9 8 Noroeste 27 Sudoeste 8.8 -- -- 96
2020-05-10 09:00:00 13.3 23 Sudeste 33 Sudeste 1.2 -- -- 93
2020-05-10 08:00:00 13.8 6 Sudeste 13 Sudeste 0 -- -- 95
2020-05-10 07:00:00 13.4 6 Este 15 Sudeste 5.2 -- -- 96
2020-05-10 06:00:00 14.1 10 Sudeste 14 Sur 0.2 -- -- 89
2020-05-10 05:00:00 14.5 10 Sur 22 Sudeste 0 -- -- 85
2020-05-10 04:00:00 14.7 18 Sudeste 29 Sudeste 0 -- -- 84
2020-05-10 03:00:00 14.9 19 Sudeste 27 Sudeste 0 -- -- 82
2020-05-10 02:00:00 14.9 20 Sudeste 32 Sudeste 0 -- -- 82
2020-05-10 01:00:00 15.2 10 Este 19 Este 0 -- -- 80
2020-05-10 00:00:00 15.4 16 Este 22 Sudeste 0 -- -- 80
2020-05-09 23:00:00 16 16 Sudeste 22 Sudeste 0 -- -- 78
2020-05-09 22:00:00 16.1 17 Sudeste 31 Sudeste 0 -- -- 79
2020-05-09 21:00:00 17 22 Sudeste 44 Sudeste 0 -- -- 73
2020-05-09 20:00:00 19.2 33 Sudeste 60 Sudeste 0 -- -- 59
2020-05-09 19:00:00 21.1 37 Sudeste 51 Sudeste 0 -- -- 46
2020-05-09 18:00:00 22.1 24 Sudeste 40 Sudeste 0 -- -- 50
2020-05-09 17:00:00 21.7 25 Sudeste 37 Sudeste 0 -- -- 53
2020-05-09 16:00:00 22.6 32 Sudeste 47 Sudeste 0 -- -- 49
2020-05-09 15:00:00 22.2 29 Sudeste 47 Sudeste 0 -- -- 52
2020-05-09 14:00:00 21.4 26 Sudeste 39 Sudeste 0 -- -- 54
2020-05-09 13:00:00 20.6 22 Sudeste 35 Sur 0 -- -- 57
2020-05-09 12:00:00 19.4 4 Este 24 Este 0 -- -- 61
2020-05-09 11:00:00 17.2 17 Sudeste 29 Sudeste 0 -- -- 72
2020-05-09 10:00:00 15.5 21 Sudeste 30 Sudeste 0 -- -- 72
2020-05-09 09:00:00 13 16 Sur 35 Sudeste 0 -- -- 77
2020-05-09 08:00:00 12.2 28 Sudeste 42 Sudeste 0 -- -- 82
2020-05-09 07:00:00 11.5 31 Sur 43 Sudeste 0 -- -- 89
2020-05-09 06:00:00 11.8 13 Sudeste 52 Sudoeste 0.6 -- -- 87
2020-05-09 05:00:00 12.8 12 Sudeste 34 Sur 0.2 -- -- 81
2020-05-09 04:00:00 12.7 5 Este 21 Este 2.2 -- -- 83
2020-05-09 03:00:00 11.9 10 Sudeste 13 Sudeste 0 -- -- 81
2020-05-09 02:00:00 13.7 5 Sudeste 20 Noroeste 0 -- -- 72
2020-05-09 01:00:00 15.6 8 Sudeste 18 Sudeste 0 -- -- 62
2020-05-09 00:00:00 16.5 13 Este 18 Noroeste 0 -- -- 66
2020-05-08 23:00:00 17.4 11 Sur 21 Sudeste 0 -- -- 58
2020-05-08 22:00:00 18.1 12 Sur 21 Sudeste 0 -- -- 54
2020-05-08 21:00:00 17.9 13 Sudeste 17 Sudeste 0 -- -- 54
2020-05-08 20:00:00 20.3 15 Sudeste 35 Sudeste 0 -- -- 45
2020-05-08 19:00:00 22.6 32 Sur 42 Sudeste 0 -- -- 37
2020-05-08 18:00:00 24.2 27 Sudeste 46 Sur 0 -- -- 37
2020-05-08 17:00:00 24.9 25 Sudeste 44 Sudeste 0 -- -- 35
2020-05-08 16:00:00 24.7 26 Sudeste 42 Sudeste 0 -- -- 38
2020-05-08 15:00:00 23.8 30 Sudeste 43 Sudeste 0 -- -- 42
2020-05-08 14:00:00 23.3 28 Sudeste 48 Sudeste 0 -- -- 49
2020-05-08 13:00:00 21.8 21 Sudeste 50 Sudeste 0 -- -- 53
2020-05-08 12:00:00 19.9 36 Sudeste 53 Sudeste 0 -- -- 55
2020-05-08 11:00:00 19.9 30 Sudeste 43 Sudeste 0 -- -- 59
2020-05-08 10:00:00 18.4 17 Sudeste 30 Sudeste 0 -- -- 61
2020-05-08 09:00:00 17.3 16 Este 24 Este 0 -- -- 62
2020-05-08 08:00:00 15.1 7 Sudeste 20 Sur 0 -- -- 69
2020-05-08 07:00:00 13.5 16 Sudeste 23 Sudeste 0 -- -- 72
2020-05-08 06:00:00 14.7 21 Sudeste 32 Sudeste 0 -- -- 66
2020-05-08 05:00:00 15.6 11 Sudeste 20 Sudeste 0 -- -- 63
2020-05-08 04:00:00 15.8 6 Sudeste 38 Sudeste 0 -- -- 64
2020-05-08 03:00:00 16.5 33 Sudeste 47 Sudeste 0 -- -- 60
2020-05-08 02:00:00 17.7 28 Sudeste 43 Sudeste 0 -- -- 58
2020-05-08 01:00:00 17.3 22 Sudeste 31 Sudeste 0 -- -- 66
2020-05-08 00:00:00 17.1 18 Sudeste 31 Sudeste 0 -- -- 70
2020-05-07 23:00:00 17.5 19 Sudeste 31 Sudeste 0 -- -- 68
2020-05-07 22:00:00 20.3 22 Sudeste 41 Sudoeste 0 -- -- 57
2020-05-07 21:00:00 19.9 19 Sudeste 28 Sudeste 0 -- -- 62
2020-05-07 20:00:00 21.1 14 Sudeste 32 Sudeste 0 -- -- 60
2020-05-07 19:00:00 23.4 20 Sudeste 33 Sudeste 0 -- -- 53
2020-05-07 18:00:00 24.4 22 Sur 36 Sudeste 0 -- -- 49
2020-05-07 17:00:00 24.8 24 Sudeste 42 Sudeste 0 -- -- 50
2020-05-07 16:00:00 24.1 23 Sudeste 38 Sudeste 0 -- -- 49
2020-05-07 15:00:00 23.5 22 Sudeste 35 Sudeste 0 -- -- 54
2020-05-07 14:00:00 23.8 20 Sur 32 Sudeste 0 -- -- 57
2020-05-07 13:00:00 22.2 22 Sudeste 31 Sudeste 0 -- -- 61
2020-05-07 12:00:00 21.9 19 Sudeste 26 Sudeste 0 -- -- 59
2020-05-07 11:00:00 21.3 4 Sur 9 Sudeste 0 -- -- 58
2020-05-07 10:00:00 17.3 3 Noroeste 7 Oeste 0 -- -- 74
2020-05-07 09:00:00 13.3 3 Norte 13 Este 0 -- -- 88
2020-05-07 08:00:00 11.7 13 Sudeste 17 Sudeste 0 -- -- 91
2020-05-07 07:00:00 9.8 11 Sudeste 12 Sudeste 0 -- -- 95
2020-05-07 06:00:00 9.8 8 Sudeste 12 Sudeste 0 -- -- 95
2020-05-07 05:00:00 9.7 8 Sudeste 12 Sudeste 0 -- -- 94
2020-05-07 04:00:00 10.1 10 Sudeste 12 Sudeste 0 -- -- 93
2020-05-07 03:00:00 10.7 8 Sudeste 10 Sudeste 0 -- -- 93
2020-05-07 02:00:00 11.2 8 Sudeste 11 Sudeste 0 -- -- 91
2020-05-07 01:00:00 12 6 Sudeste 8 Sudeste 0 -- -- 89
2020-05-07 00:00:00 14.2 2 Norte 5 Noroeste 0 -- -- 82
2020-05-06 23:00:00 16.7 0 Calma 17 Noroeste 0 -- -- 72
2020-05-06 22:00:00 17.8 6 Noroeste 21 Noroeste 0 -- -- 69
2020-05-06 21:00:00 19.8 13 Noroeste 28 Noroeste 0 -- -- 62
2020-05-06 20:00:00 21.2 21 Noroeste 34 Noroeste 0 -- -- 58
2020-05-06 19:00:00 22.2 17 Norte 30 Norte 0 -- -- 55
2020-05-06 18:00:00 23.6 15 Noroeste 26 Noroeste 0 -- -- 50
2020-05-06 17:00:00 24.5 11 Oeste 25 Noroeste 0 -- -- 46
2020-05-06 16:00:00 24.9 14 Oeste 23 Oeste 0 -- -- 47
2020-05-06 15:00:00 24 8 Noroeste 21 Oeste 0 -- -- 42
2020-05-06 14:00:00 23.4 14 Noroeste 23 Noroeste 0 -- -- 49
2020-05-06 13:00:00 21.8 15 Noroeste 24 Noroeste 0 -- -- 57
2020-05-06 12:00:00 20.2 17 Noroeste 22 Noroeste 0 -- -- 63
2020-05-06 11:00:00 18.3 12 Noroeste 18 Noroeste 0 -- -- 72
2020-05-06 10:00:00 16.6 4 Noroeste 8 Noroeste 0 -- -- 77
2020-05-06 09:00:00 14.3 0 Calma 5 Este 0 -- -- 82
2020-05-06 08:00:00 9.9 4 Sudeste 9 Sudeste 0 -- -- 93
2020-05-06 07:00:00 8.6 6 Sudeste 9 Sudeste 0 -- -- 95
2020-05-06 06:00:00 9 6 Sudeste 12 Sudeste 0 -- -- 96
2020-05-06 05:00:00 9.3 8 Sudeste 10 Sudeste 0 -- -- 96
2020-05-06 04:00:00 10 8 Sudeste 10 Sudeste 0 -- -- 94
2020-05-06 03:00:00 10.5 7 Sudeste 10 Sudeste 0 -- -- 94
2020-05-06 02:00:00 11.4 6 Sudeste 9 Sudeste 0 -- -- 92
2020-05-06 01:00:00 12.2 5 Sudeste 6 Sudeste 0 -- -- 89
2020-05-06 00:00:00 13.1 3 Sudeste 8 Sudeste 0 -- -- 87
2020-05-05 23:00:00 14.1 3 Este 9 Noroeste 0 -- -- 84
2020-05-05 22:00:00 16.4 8 Noroeste 19 Noroeste 0 -- -- 79
2020-05-05 21:00:00 18.4 7 Sudeste 11 Sudeste 0 -- -- 57
2020-05-05 20:00:00 21.3 3 Sudeste 8 Noroeste 0 -- -- 55
2020-05-05 19:00:00 22.2 5 Noroeste 12 Oeste 0 -- -- 42
2020-05-05 18:00:00 23.6 10 Noroeste 17 Noroeste 0 -- -- 37
2020-05-05 17:00:00 23.3 13 Noroeste 20 Noroeste 0 -- -- 42
2020-05-05 16:00:00 22.8 13 Noroeste 25 Noroeste 0 -- -- 37
2020-05-05 15:00:00 22.8 15 Noroeste 24 Noroeste 0 -- -- 41
2020-05-05 14:00:00 21.7 16 Noroeste 24 Noroeste 0 -- -- 53
2020-05-05 13:00:00 21.3 13 Noroeste 22 Noroeste 0 -- -- 53
2020-05-05 12:00:00 20.7 12 Noroeste 17 Noroeste 0 -- -- 53
2020-05-05 11:00:00 19.4 4 Norte 10 Noroeste 0 -- -- 61
2020-05-05 10:00:00 18.3 6 Noroeste 10 Noroeste 0 -- -- 69
2020-05-05 09:00:00 16.9 0 Calma 9 Sudeste 0 -- -- 80
2020-05-05 08:00:00 12.3 7 Sudeste 11 Sudeste 0 -- -- 93
2020-05-05 07:00:00 11.7 6 Sudeste 7 Sudeste 0 -- -- 96
2020-05-05 06:00:00 12.5 4 Este 6 Norte 0 -- -- 95
2020-05-05 05:00:00 13.9 0 Calma 9 Noroeste 0 -- -- 94
2020-05-05 04:00:00 14.8 10 Noroeste 16 Norte 0 -- -- 90
2020-05-05 03:00:00 16.1 12 Noroeste 17 Noroeste 0 -- -- 88
2020-05-05 02:00:00 18.1 8 Oeste 20 Sudoeste 0 -- -- 72
2020-05-05 01:00:00 20 15 Sudoeste 43 Sur 0 -- -- 63
2020-05-05 00:00:00 20.5 19 Sur 30 Noroeste 0 -- -- 62